Ocean Majesty — CQSC — position and weather

sailwx.info

Track history (hours):
 
Tides and Currents Weather Stations Pressure Air Temp Water Temp Dewpoint Dewpoint Depression Visibility Wind Speed Wind Dir Waves Ship Positions

Ocean Majesty

Last reported at 2016-Aug-21 14:34 UTC. Time now 2016-Aug-25 13:11 UTC.
Position N 62°60' W 007°38'.

Length 136 m; draft 6.3 m.

Type: Passenger vessel. MMSI: 255717000.

Date/timePositionNaut miles runAvg speedWind from/ knotsBaromVisibWave heightAir tempDewpointWater temp
2016-Aug-21 14:34N 62°60' W 007°38'1514.6
2016-Aug-21 13:34N 62°51' W 007°14'1413.9
2016-Aug-21 12:33N 62°42' W 006°50'1313.4
2016-Aug-21 11:33N 62°33' W 006°29'1313.5
2016-Aug-21 10:33N 62°24' W 006°07'1414.3
2016-Aug-21 09:33N 62°12' W 005°48'1515.3
2016-Aug-21 08:33N 62°01' W 005°27'1615.6
2016-Aug-21 07:34N 61°49' W 005°05'325 8.1
2016-Aug-19 15:33N 57°54' E 002°22'22516.0
2016-Aug-19 01:32N 54°58' E 006°35'1616.6
2016-Aug-19 00:33N 54°46' E 006°53'1616.4
2016-Aug-18 23:34N 54°33' E 007°10'1615.8
2016-Aug-18 22:33N 54°21' E 007°28'1515.4
2016-Aug-18 21:33N 54°09' E 007°45'1515.0
2016-Aug-18 20:34N 54°01' E 008°06'1313.1
2016-Aug-18 19:33N 53°59' E 008°29'1414.2
2016-Aug-18 18:33N 53°50' E 008°48'1515.2
2016-Aug-18 17:33N 53°53' E 009°13'1615.6
2016-Aug-18 16:33N 53°41' E 009°30'1313.0
2016-Aug-18 15:33N 53°33' E 009°48'5 4.7
2016-Aug-18 14:31N 53°33' E 009°56'0 0.0
2016-Aug-18 13:31N 53°33' E 009°56'0 0.0
2016-Aug-18 12:34N 53°33' E 009°56'0 0.0
2016-Aug-18 11:31N 53°33' E 009°56'0 0.0
2016-Aug-18 10:34N 53°33' E 009°56'0 0.0
2016-Aug-18 09:34N 53°33' E 009°56'0 0.0
2016-Aug-18 08:34N 53°33' E 009°56'0 0.0
2016-Aug-18 07:34N 53°33' E 009°56'0 0.1
2016-Aug-18 06:33N 53°32' E 009°56'9 9.0
2016-Aug-18 05:34N 53°34' E 009°41'1211.6
2016-Aug-18 04:33N 53°43' E 009°29'1313.2
2016-Aug-18 03:34N 53°53' E 009°14'1110.8
2016-Aug-18 02:33N 53°51' E 008°56'8 8.3
2016-Aug-18 01:33N 53°53' E 008°42'1413.8
2016-Aug-18 00:32N 53°59' E 008°21'1313.7
2016-Aug-17 23:33N 53°58' E 007°58'1716.8
2016-Aug-17 22:33N 53°54' E 007°31'1717.0
2016-Aug-17 21:34N 53°50' E 007°03'1717.2
2016-Aug-17 20:33N 53°46' E 006°34'1817.4
2016-Aug-17 19:33N 53°41' E 006°06'1717.3
2016-Aug-17 18:33N 53°36' E 005°38'1817.5
2016-Aug-17 17:31N 53°30' E 005°09'13616.8
2016-Aug-17 09:23N 51°49' E 002°38'1215.0
2016-Aug-17 08:33N 51°40' E 002°25'1514.6
2016-Aug-17 07:33N 51°28' E 002°10'1211.7
2016-Aug-17 06:33N 51°28' E 001°51'1313.2
2016-Aug-17 05:34N 51°24' E 001°31'4 3.7
2016-Aug-17 04:34N 51°27' E 001°27'1515.0
2016-Aug-17 03:33N 51°30' E 001°04'1414.4
2016-Aug-17 02:33N 51°30' E 000°41'1212.1
2016-Aug-17 01:34N 51°27' E 000°22'1010.1
2016-Aug-17 00:33N 51°31' E 000°07'2 0.1
2016-Aug-15 20:30N 51°30' E 000°04'9 9.5
2016-Aug-15 19:34N 51°28' E 000°18'9 9.0
2016-Aug-15 18:33N 51°30' E 000°33'1111.0
2016-Aug-15 17:33N 51°30' E 000°50'1010.3
2016-Aug-15 16:33N 51°29' E 001°07'1111.5
2016-Aug-15 15:33N 51°28' E 001°25'9 9.0
2016-Aug-15 14:34N 51°22' E 001°35'8 8.4
2016-Aug-15 13:33N 51°13' E 001°38'1110.7
2016-Aug-15 12:33N 51°03' E 001°35'6312.1
2016-Aug-15 07:18N 50°23' E 000°17'1113.5
2016-Aug-15 06:31N 50°21' E 000°01'3113.7
2016-Aug-15 04:16N 50°19' W 000°48'3912.5
2016-Aug-15 01:11N 50°17' W 001°48'2911.1
2016-Aug-14 22:33N 50°15' W 002°33'1111.3
2016-Aug-14 21:33N 50°14' W 002°51'1211.8
2016-Aug-14 20:33N 50°12' W 003°09'1212.1
2016-Aug-14 19:33N 50°10' W 003°28'1212.1
2016-Aug-14 18:33N 50°09' W 003°47'1211.8
2016-Aug-14 17:33N 50°14' W 004°04'8 7.5
2016-Aug-14 16:32N 50°21' W 004°08'0 0.0
2016-Aug-14 15:32N 50°21' W 004°08'0 0.0
2016-Aug-14 14:29N 50°21' W 004°08'0 0.0
2016-Aug-14 13:32N 50°21' W 004°08'0 0.0
2016-Aug-14 12:32N 50°21' W 004°08'0 0.0
2016-Aug-14 11:29N 50°21' W 004°08'0 0.0
2016-Aug-14 10:32N 50°21' W 004°08'0 0.0
2016-Aug-14 09:32N 50°21' W 004°08'7 7.3
2016-Aug-14 08:33N 50°16' W 004°17'1413.8
2016-Aug-14 07:33N 50°08' W 004°35'1413.7
2016-Aug-14 06:33N 50°00' W 004°52'2713.3
2016-Aug-14 04:30N 49°52' W 005°32'1913.4
2016-Aug-14 03:04N 49°59' W 006°00'4115.3
2016-Aug-14 00:22N 50°41' W 005°60'194 8.5
2016-Aug-13 01:33N 53°54' W 005°39'1313.2
2016-Aug-13 00:34N 54°06' W 005°30'1313.0
2016-Aug-12 23:33N 54°19' W 005°23'1212.2
2016-Aug-12 22:33N 54°31' W 005°22'1212.1
2016-Aug-12 21:33N 54°42' W 005°28'1111.1
2016-Aug-12 20:33N 54°41' W 005°47'5 0.3
2016-Aug-12 05:22N 54°38' W 005°53'6 7.5
2016-Aug-12 04:33N 54°42' W 005°46'1010.1
2016-Aug-12 03:33N 54°49' W 005°34'1212.3
2016-Aug-12 02:33N 55°00' W 005°24'3711.9
2016-Aug-11 23:27N 55°34' W 004°59'1112.5
2016-Aug-11 22:33N 55°46' W 004°59'1211.7
2016-Aug-11 21:33N 55°57' W 004°53'4 4.2
2016-Aug-11 20:33N 55°57' W 004°46'0 0.0
2016-Aug-11 19:33N 55°57' W 004°46'0 0.0
2016-Aug-11 18:33N 55°57' W 004°46'0 0.0
2016-Aug-11 17:33N 55°57' W 004°46'0 0.0
2016-Aug-11 16:33N 55°57' W 004°46'0 0.0
2016-Aug-11 15:33N 55°57' W 004°46'  
Track history (hours):
 
Tides and Currents Weather Stations Pressure Air Temp Water Temp Dewpoint Dewpoint Depression Visibility Wind Speed Wind Dir Waves Ship Positions

Ocean Majesty

Last reported at 2016-Aug-21 14:34 UTC. Time now 2016-Aug-25 13:11 UTC.
Position N 62°60' W 007°38'.

Length 136 m; draft 6.3 m.

Type: Passenger vessel. MMSI: 255717000.

Date/timePositionNaut miles runAvg speedWind from/ knotsBaromVisibWave heightAir tempDewpointWater temp
2016-Aug-21 14:34N 62°60' W 007°38'1514.6
2016-Aug-21 13:34N 62°51' W 007°14'1413.9
2016-Aug-21 12:33N 62°42' W 006°50'1313.4
2016-Aug-21 11:33N 62°33' W 006°29'1313.5
2016-Aug-21 10:33N 62°24' W 006°07'1414.3
2016-Aug-21 09:33N 62°12' W 005°48'1515.3
2016-Aug-21 08:33N 62°01' W 005°27'1615.6
2016-Aug-21 07:34N 61°49' W 005°05'325 8.1
2016-Aug-19 15:33N 57°54' E 002°22'22516.0
2016-Aug-19 01:32N 54°58' E 006°35'1616.6
2016-Aug-19 00:33N 54°46' E 006°53'1616.4
2016-Aug-18 23:34N 54°33' E 007°10'1615.8
2016-Aug-18 22:33N 54°21' E 007°28'1515.4
2016-Aug-18 21:33N 54°09' E 007°45'1515.0
2016-Aug-18 20:34N 54°01' E 008°06'1313.1
2016-Aug-18 19:33N 53°59' E 008°29'1414.2
2016-Aug-18 18:33N 53°50' E 008°48'1515.2
2016-Aug-18 17:33N 53°53' E 009°13'1615.6
2016-Aug-18 16:33N 53°41' E 009°30'1313.0
2016-Aug-18 15:33N 53°33' E 009°48'5 4.7
2016-Aug-18 14:31N 53°33' E 009°56'0 0.0
2016-Aug-18 13:31N 53°33' E 009°56'0 0.0
2016-Aug-18 12:34N 53°33' E 009°56'0 0.0
2016-Aug-18 11:31N 53°33' E 009°56'0 0.0
2016-Aug-18 10:34N 53°33' E 009°56'0 0.0
2016-Aug-18 09:34N 53°33' E 009°56'0 0.0
2016-Aug-18 08:34N 53°33' E 009°56'0 0.0
2016-Aug-18 07:34N 53°33' E 009°56'0 0.1
2016-Aug-18 06:33N 53°32' E 009°56'9 9.0
2016-Aug-18 05:34N 53°34' E 009°41'1211.6
2016-Aug-18 04:33N 53°43' E 009°29'1313.2
2016-Aug-18 03:34N 53°53' E 009°14'1110.8
2016-Aug-18 02:33N 53°51' E 008°56'8 8.3
2016-Aug-18 01:33N 53°53' E 008°42'1413.8
2016-Aug-18 00:32N 53°59' E 008°21'1313.7
2016-Aug-17 23:33N 53°58' E 007°58'1716.8
2016-Aug-17 22:33N 53°54' E 007°31'1717.0
2016-Aug-17 21:34N 53°50' E 007°03'1717.2
2016-Aug-17 20:33N 53°46' E 006°34'1817.4
2016-Aug-17 19:33N 53°41' E 006°06'1717.3
2016-Aug-17 18:33N 53°36' E 005°38'1817.5
2016-Aug-17 17:31N 53°30' E 005°09'13616.8
2016-Aug-17 09:23N 51°49' E 002°38'1215.0
2016-Aug-17 08:33N 51°40' E 002°25'1514.6
2016-Aug-17 07:33N 51°28' E 002°10'1211.7
2016-Aug-17 06:33N 51°28' E 001°51'1313.2
2016-Aug-17 05:34N 51°24' E 001°31'4 3.7
2016-Aug-17 04:34N 51°27' E 001°27'1515.0
2016-Aug-17 03:33N 51°30' E 001°04'1414.4
2016-Aug-17 02:33N 51°30' E 000°41'1212.1
2016-Aug-17 01:34N 51°27' E 000°22'1010.1
2016-Aug-17 00:33N 51°31' E 000°07'2 0.1
2016-Aug-15 20:30N 51°30' E 000°04'9 9.5
2016-Aug-15 19:34N 51°28' E 000°18'9 9.0
2016-Aug-15 18:33N 51°30' E 000°33'1111.0
2016-Aug-15 17:33N 51°30' E 000°50'1010.3
2016-Aug-15 16:33N 51°29' E 001°07'1111.5
2016-Aug-15 15:33N 51°28' E 001°25'9 9.0
2016-Aug-15 14:34N 51°22' E 001°35'8 8.4
2016-Aug-15 13:33N 51°13' E 001°38'1110.7
2016-Aug-15 12:33N 51°03' E 001°35'6312.1
2016-Aug-15 07:18N 50°23' E 000°17'1113.5
2016-Aug-15 06:31N 50°21' E 000°01'3113.7
2016-Aug-15 04:16N 50°19' W 000°48'3912.5
2016-Aug-15 01:11N 50°17' W 001°48'2911.1
2016-Aug-14 22:33N 50°15' W 002°33'1111.3
2016-Aug-14 21:33N 50°14' W 002°51'1211.8
2016-Aug-14 20:33N 50°12' W 003°09'1212.1
2016-Aug-14 19:33N 50°10' W 003°28'1212.1
2016-Aug-14 18:33N 50°09' W 003°47'1211.8
2016-Aug-14 17:33N 50°14' W 004°04'8 7.5
2016-Aug-14 16:32N 50°21' W 004°08'0 0.0
2016-Aug-14 15:32N 50°21' W 004°08'0 0.0
2016-Aug-14 14:29N 50°21' W 004°08'0 0.0
2016-Aug-14 13:32N 50°21' W 004°08'0 0.0
2016-Aug-14 12:32N 50°21' W 004°08'0 0.0
2016-Aug-14 11:29N 50°21' W 004°08'0 0.0
2016-Aug-14 10:32N 50°21' W 004°08'0 0.0
2016-Aug-14 09:32N 50°21' W 004°08'7 7.3
2016-Aug-14 08:33N 50°16' W 004°17'1413.8
2016-Aug-14 07:33N 50°08' W 004°35'1413.7
2016-Aug-14 06:33N 50°00' W 004°52'2713.3
2016-Aug-14 04:30N 49°52' W 005°32'1913.4
2016-Aug-14 03:04N 49°59' W 006°00'4115.3
2016-Aug-14 00:22N 50°41' W 005°60'194 8.5
2016-Aug-13 01:33N 53°54' W 005°39'1313.2
2016-Aug-13 00:34N 54°06' W 005°30'1313.0
2016-Aug-12 23:33N 54°19' W 005°23'1212.2
2016-Aug-12 22:33N 54°31' W 005°22'1212.1
2016-Aug-12 21:33N 54°42' W 005°28'1111.1
2016-Aug-12 20:33N 54°41' W 005°47'5 0.3
2016-Aug-12 05:22N 54°38' W 005°53'6 7.5
2016-Aug-12 04:33N 54°42' W 005°46'1010.1
2016-Aug-12 03:33N 54°49' W 005°34'1212.3
2016-Aug-12 02:33N 55°00' W 005°24'3711.9
2016-Aug-11 23:27N 55°34' W 004°59'1112.5
2016-Aug-11 22:33N 55°46' W 004°59'1211.7
2016-Aug-11 21:33N 55°57' W 004°53'4 4.2
2016-Aug-11 20:33N 55°57' W 004°46'0 0.0
2016-Aug-11 19:33N 55°57' W 004°46'0 0.0
2016-Aug-11 18:33N 55°57' W 004°46'0 0.0
2016-Aug-11 17:33N 55°57' W 004°46'0 0.0
2016-Aug-11 16:33N 55°57' W 004°46'0 0.0
2016-Aug-11 15:33N 55°57' W 004°46'  

Dump ship's entire track history